Time;durP1;ratioP1;P1;durP2;ratioP2;P2;SDS_P1;SDS_P2;PMS_P1;PMS_P2;Temp;Humidity;BMP_temperature;BMP_pressure;BME280_temperature;BME280_humidity;BME280_pressure;Samples;Min_cycle;Max_cycle;Signal;HPM_P1;HPM_P2
2022/04/22 00:00:38;;;;;;;5.30;3.27;;;10.10;99.90;;;;;;5023764;28;20208;-60
2022/04/22 00:03:06;;;;;;;8.53;3.17;;;10.10;99.90;;;;;;5020477;28;20672;-60
2022/04/22 00:05:34;;;;;;;8.87;3.70;;;10.10;99.90;;;;;;5043748;28;20247;-61
2022/04/22 00:08:01;;;;;;;7.77;3.23;;;10.00;99.90;;;;;;5019221;28;20204;-61
2022/04/22 00:10:29;;;;;;;7.53;3.40;;;10.00;99.90;;;;;;5048640;28;20240;-60
2022/04/22 00:12:56;;;;;;;8.27;3.10;;;10.00;99.90;;;;;;5031913;28;20226;-61
2022/04/22 00:15:25;;;;;;;3.60;2.70;;;9.90;99.90;;;;;;5042765;28;20250;-61
2022/04/22 00:17:52;;;;;;;7.93;3.10;;;9.80;99.90;;;;;;5019650;28;20348;-61
2022/04/22 00:20:20;;;;;;;10.57;3.37;;;9.70;99.90;;;;;;5028993;28;20212;-60
2022/04/22 00:22:47;;;;;;;4.47;3.17;;;9.60;99.90;;;;;;5043815;28;20212;-60
2022/04/22 00:25:15;;;;;;;6.83;3.27;;;9.60;99.90;;;;;;5015929;28;20266;-60
2022/04/22 00:27:42;;;;;;;3.93;2.80;;;9.60;99.90;;;;;;5020743;28;20255;-60
2022/04/22 00:30:12;;;;;;;5.37;2.93;;;9.60;99.90;;;;;;5040580;28;20290;-60
2022/04/22 00:32:40;;;;;;;8.77;3.87;;;9.60;99.90;;;;;;5014545;28;20208;-60
2022/04/22 00:35:08;;;;;;;5.80;2.90;;;9.70;99.90;;;;;;5030901;28;20231;-61
2022/04/22 00:37:36;;;;;;;10.03;3.97;;;9.60;99.90;;;;;;5041816;28;20309;-60
2022/04/22 00:40:04;;;;;;;5.03;2.70;;;9.60;99.90;;;;;;5025184;28;20375;-61
2022/04/22 00:42:31;;;;;;;3.83;2.87;;;9.50;99.90;;;;;;5028585;28;20454;-61
2022/04/22 00:44:59;;;;;;;5.27;2.90;;;9.50;99.90;;;;;;5044939;28;20605;-60
2022/04/22 00:47:26;;;;;;;3.37;2.90;;;9.50;99.90;;;;;;5012070;28;20366;-60
2022/04/22 00:49:55;;;;;;;4.33;2.67;;;9.40;99.90;;;;;;5022364;28;20220;-60
2022/04/22 00:52:22;;;;;;;6.97;3.40;;;9.40;99.90;;;;;;5041379;28;20896;-61
2022/04/22 00:54:50;;;;;;;4.07;2.80;;;9.40;99.90;;;;;;5028333;28;20211;-60
2022/04/22 00:57:19;;;;;;;5.73;2.93;;;9.30;99.90;;;;;;5046568;28;20223;-60
2022/04/22 00:59:47;;;;;;;5.40;2.93;;;9.30;99.90;;;;;;5049152;28;20303;-60
2022/04/22 01:02:14;;;;;;;4.20;2.67;;;9.30;99.90;;;;;;5033145;28;20267;-61
2022/04/22 01:10:17;;;;;;;4.37;2.67;;;9.20;99.90;;;;;;5030720;28;20263;-60
2022/04/22 01:12:44;;;;;;;4.33;2.97;;;8.90;99.90;;;;;;5040482;28;20217;-60
2022/04/22 01:15:12;;;;;;;5.33;2.87;;;9.00;99.90;;;;;;5046551;28;20267;-60
2022/04/22 01:17:39;;;;;;;4.63;2.80;;;9.00;99.90;;;;;;5049283;28;20209;-60
2022/04/22 01:20:07;;;;;;;8.83;3.50;;;8.90;99.90;;;;;;5030130;28;20216;-63
2022/04/22 01:22:36;;;;;;;4.67;2.60;;;8.90;99.90;;;;;;5030817;28;20201;-60
2022/04/22 01:25:05;;;;;;;4.27;3.37;;;8.90;99.90;;;;;;5045253;28;22558;-61
2022/04/22 01:27:32;;;;;;;6.20;3.30;;;8.80;99.90;;;;;;5015653;28;20209;-60
2022/04/22 01:30:02;;;;;;;7.07;3.57;;;8.80;99.90;;;;;;5048953;28;20227;-60
2022/04/22 01:32:30;;;;;;;8.83;3.50;;;8.80;99.90;;;;;;5026006;28;20197;-60
2022/04/22 01:34:57;;;;;;;4.30;3.00;;;8.70;99.90;;;;;;5030439;28;20220;-60
2022/04/22 01:37:24;;;;;;;9.17;3.97;;;8.70;99.90;;;;;;5018034;28;20236;-61
2022/04/22 01:39:53;;;;;;;5.67;3.63;;;8.50;99.90;;;;;;5043209;28;20233;-60
2022/04/22 01:42:20;;;;;;;10.50;3.43;;;8.60;99.90;;;;;;5015354;28;20261;-61
2022/04/22 01:44:49;;;;;;;5.50;3.83;;;8.50;99.90;;;;;;5047416;28;20212;-60
2022/04/22 01:47:17;;;;;;;7.47;3.30;;;8.50;99.90;;;;;;5029960;28;20210;-60
2022/04/22 01:49:44;;;;;;;5.77;3.40;;;8.40;99.90;;;;;;5033459;28;20425;-60
2022/04/22 01:52:11;;;;;;;5.53;3.60;;;8.40;99.90;;;;;;5036435;28;20209;-60
2022/04/22 01:54:38;;;;;;;6.27;3.47;;;8.40;99.90;;;;;;5047340;28;20228;-60
2022/04/22 01:57:07;;;;;;;6.73;3.90;;;8.40;99.90;;;;;;5032468;28;20206;-61
2022/04/22 01:59:35;;;;;;;6.07;3.50;;;8.40;99.90;;;;;;5033829;28;20893;-60
2022/04/22 02:02:02;;;;;;;8.17;3.67;;;8.40;99.90;;;;;;5052867;28;20240;-61
2022/04/22 02:04:29;;;;;;;8.13;3.60;;;8.30;99.90;;;;;;5029756;28;20240;-61
2022/04/22 02:06:57;;;;;;;6.90;3.77;;;8.30;99.90;;;;;;5044917;28;20204;-61
2022/04/22 02:09:24;;;;;;;5.70;3.53;;;8.20;99.90;;;;;;5012732;28;20213;-60
2022/04/22 02:11:51;;;;;;;9.00;3.57;;;8.20;99.90;;;;;;5040414;28;20305;-61
2022/04/22 02:14:20;;;;;;;8.67;4.37;;;8.20;99.90;;;;;;5018302;28;20638;-61
2022/04/22 02:16:47;;;;;;;8.37;3.50;;;8.20;99.90;;;;;;5041258;28;20299;-61
2022/04/22 02:19:14;;;;;;;7.60;4.23;;;8.20;99.90;;;;;;5036709;28;20255;-60
2022/04/22 02:21:42;;;;;;;8.33;3.57;;;8.20;99.90;;;;;;5034060;28;20282;-60
2022/04/22 02:24:08;;;;;;;8.57;4.03;;;8.20;99.90;;;;;;5015429;28;20209;-61
2022/04/22 02:29:16;;;;;;;10.50;4.03;;;8.20;99.90;;;;;;5014184;28;20715;-60
2022/04/22 02:31:45;;;;;;;8.40;4.00;;;8.10;99.90;;;;;;5036465;28;20841;-60
2022/04/22 02:34:12;;;;;;;5.87;3.90;;;8.10;99.90;;;;;;5045255;28;20730;-61
2022/04/22 02:36:41;;;;;;;9.40;3.87;;;7.90;99.90;;;;;;5014649;28;20261;-60
2022/04/22 02:39:08;;;;;;;7.97;4.07;;;7.90;99.90;;;;;;5037135;28;20721;-61
2022/04/22 02:47:06;;;;;;;3.93;3.13;;;7.70;99.90;;;;;;5020285;28;20344;-61
2022/04/22 02:49:33;;;;;;;5.73;3.70;;;7.60;99.90;;;;;;5043524;28;20251;-60
2022/04/22 02:52:01;;;;;;;10.07;3.90;;;7.50;99.90;;;;;;5027984;28;20271;-60
2022/04/22 02:54:30;;;;;;;7.57;3.70;;;7.50;99.90;;;;;;5032134;28;20212;-64
2022/04/22 02:56:58;;;;;;;5.80;3.73;;;7.50;99.90;;;;;;5024113;28;20219;-61
2022/04/22 02:59:25;;;;;;;7.87;3.73;;;7.50;99.90;;;;;;5040267;28;20262;-60
2022/04/22 03:01:52;;;;;;;9.33;4.00;;;7.50;99.90;;;;;;5022681;28;20274;-60
2022/04/22 03:04:20;;;;;;;9.43;4.60;;;7.40;99.90;;;;;;5038932;28;20193;-60
2022/04/22 03:06:48;;;;;;;6.63;3.80;;;7.50;99.90;;;;;;5025519;28;20214;-60
2022/04/22 03:09:15;;;;;;;7.73;3.90;;;7.50;99.90;;;;;;5045363;28;20208;-62
2022/04/22 03:11:42;;;;;;;5.37;3.70;;;7.60;99.90;;;;;;5030786;28;20317;-60
2022/04/22 03:14:09;;;;;;;6.70;4.20;;;7.50;99.90;;;;;;5038859;28;20205;-60
2022/04/22 03:16:36;;;;;;;8.57;4.43;;;7.40;99.90;;;;;;5028405;28;20258;-60
2022/04/22 03:19:03;;;;;;;7.43;4.30;;;7.40;99.90;;;;;;5038988;28;20216;-61
2022/04/22 03:21:32;;;;;;;7.20;4.03;;;7.30;99.90;;;;;;5044172;28;20208;-59
2022/04/22 03:23:59;;;;;;;6.83;3.53;;;7.40;99.90;;;;;;5028032;28;20207;-61
2022/04/22 03:26:27;;;;;;;8.87;4.07;;;7.30;99.90;;;;;;5025410;28;20208;-60
2022/04/22 03:28:55;;;;;;;4.80;4.03;;;7.20;99.90;;;;;;5028839;28;20654;-60
2022/04/22 03:31:22;;;;;;;7.43;4.17;;;7.20;99.90;;;;;;5039039;28;21132;-60
2022/04/22 03:33:49;;;;;;;8.13;4.10;;;7.20;99.90;;;;;;5012207;28;21036;-60
2022/04/22 03:36:16;;;;;;;7.87;4.50;;;7.10;99.90;;;;;;5036244;28;20240;-60
2022/04/22 03:38:45;;;;;;;8.23;4.00;;;7.10;99.90;;;;;;5027527;28;20202;-60
2022/04/22 03:41:12;;;;;;;7.13;3.73;;;7.10;99.90;;;;;;5032020;28;20325;-61
2022/04/22 03:43:40;;;;;;;6.00;3.60;;;7.10;99.90;;;;;;5025858;28;20280;-61
2022/04/22 03:46:07;;;;;;;6.90;3.93;;;7.10;99.90;;;;;;5031377;28;20312;-60
2022/04/22 03:48:34;;;;;;;6.90;4.10;;;7.10;99.90;;;;;;5015157;28;20733;-60
2022/04/22 03:51:01;;;;;;;6.90;3.80;;;7.00;99.90;;;;;;5027143;28;20299;-61
2022/04/22 03:53:28;;;;;;;5.90;3.30;;;7.10;99.90;;;;;;5027991;28;20204;-60
2022/04/22 03:58:10;;;;;;;7.90;3.63;;;7.10;99.90;;;;;;5037305;28;20203;-61
2022/04/22 03:58:43;;;;;;;5.23;3.27;;;7.20;99.90;;;;;;5038812;28;20220;-60
2022/04/22 04:01:10;;;;;;;8.20;3.73;;;7.20;99.90;;;;;;5039930;28;20208;-61
2022/04/22 04:03:38;;;;;;;7.10;3.80;;;7.10;99.90;;;;;;5022925;28;20206;-60
2022/04/22 04:06:07;;;;;;;9.73;4.23;;;7.00;99.90;;;;;;5037746;28;20202;-60
2022/04/22 04:08:34;;;;;;;7.60;4.07;;;7.10;99.90;;;;;;5030417;28;20195;-60
2022/04/22 04:16:32;;;;;;;6.70;3.57;;;7.10;99.90;;;;;;5039572;28;20246;-60
2022/04/22 04:24:24;;;;;;;9.27;3.27;;;7.10;99.90;;;;;;5012295;28;20224;-60
2022/04/22 04:26:53;;;;;;;3.53;2.83;;;7.00;99.90;;;;;;5025811;28;20873;-60
2022/04/22 04:29:21;;;;;;;5.10;3.20;;;7.10;99.90;;;;;;5027502;28;20201;-61
2022/04/22 04:31:48;;;;;;;6.90;2.90;;;7.00;99.90;;;;;;5046791;28;20601;-60
2022/04/22 04:34:15;;;;;;;5.73;3.27;;;7.00;99.90;;;;;;5039889;28;20203;-61
2022/04/22 04:36:42;;;;;;;6.03;3.30;;;7.00;99.90;;;;;;5023248;28;20247;-60
2022/04/22 04:39:09;;;;;;;5.13;3.43;;;7.00;99.90;;;;;;5031435;28;20200;-61
2022/04/22 04:41:37;;;;;;;5.37;3.23;;;7.00;99.90;;;;;;5019037;28;20226;-61
2022/04/22 04:44:06;;;;;;;6.00;2.83;;;6.90;99.90;;;;;;5046945;28;20314;-61
2022/04/22 04:46:34;;;;;;;6.50;3.13;;;6.90;99.90;;;;;;5043514;28;20205;-60
2022/04/22 04:49:01;;;;;;;4.20;3.20;;;6.90;99.90;;;;;;5050712;28;20196;-61
2022/04/22 04:51:29;;;;;;;3.83;2.60;;;7.00;99.90;;;;;;5021511;28;20231;-60
2022/04/22 04:53:56;;;;;;;5.63;3.50;;;7.10;99.90;;;;;;5045077;28;20292;-60
2022/04/22 04:56:23;;;;;;;6.30;3.03;;;7.10;99.90;;;;;;5013941;28;20365;-60
2022/04/22 04:58:50;;;;;;;6.97;3.17;;;7.00;99.90;;;;;;5045998;28;20198;-61
2022/04/22 05:01:18;;;;;;;3.83;2.87;;;7.00;99.90;;;;;;5034480;28;20198;-60
2022/04/22 05:03:46;;;;;;;7.70;3.33;;;7.00;99.90;;;;;;5037658;28;20205;-60
2022/04/22 05:06:14;;;;;;;7.87;3.67;;;7.00;99.90;;;;;;5039149;28;20673;-61
2022/04/22 05:08:41;;;;;;;7.10;3.23;;;7.10;99.90;;;;;;5022824;28;20324;-60
2022/04/22 05:11:08;;;;;;;6.20;3.60;;;7.10;99.90;;;;;;5011127;28;21167;-60
2022/04/22 05:13:35;;;;;;;7.07;3.37;;;7.20;99.90;;;;;;5024691;28;20294;-60
2022/04/22 05:16:02;;;;;;;5.87;3.80;;;7.20;99.90;;;;;;5039242;28;20224;-60
2022/04/22 05:18:31;;;;;;;5.63;3.00;;;7.20;99.90;;;;;;5041406;28;20763;-60
2022/04/22 05:20:58;;;;;;;4.77;3.27;;;7.20;99.90;;;;;;5037941;28;20479;-60
2022/04/22 05:23:25;;;;;;;6.30;3.50;;;7.30;99.90;;;;;;5017368;28;20222;-60
2022/04/22 05:25:52;;;;;;;5.47;3.03;;;7.30;99.90;;;;;;5015496;28;20324;-60
2022/04/22 05:28:19;;;;;;;3.70;2.70;;;7.30;99.90;;;;;;5040742;28;20259;-60
2022/04/22 05:33:33;;;;;;;5.90;3.37;;;7.50;99.90;;;;;;5045817;28;20336;-60
2022/04/22 05:36:00;;;;;;;7.93;3.30;;;7.50;99.90;;;;;;5046890;28;20684;-60
2022/04/22 05:38:27;;;;;;;7.00;3.03;;;7.60;99.90;;;;;;5035597;28;20204;-61
2022/04/22 05:40:54;;;;;;;6.20;3.53;;;7.70;99.90;;;;;;5023282;28;20289;-60
2022/04/22 05:43:22;;;;;;;8.00;3.33;;;7.70;99.90;;;;;;5041316;28;20203;-60
2022/04/22 05:45:49;;;;;;;5.20;2.83;;;7.70;99.90;;;;;;5035739;28;20289;-60
2022/04/22 05:48:16;;;;;;;4.60;3.07;;;7.70;99.90;;;;;;5042613;28;20677;-60
2022/04/22 05:50:44;;;;;;;8.23;3.43;;;7.70;99.90;;;;;;5046444;28;20991;-60
2022/04/22 05:53:11;;;;;;;7.70;3.67;;;7.80;99.90;;;;;;5047137;28;20204;-60
2022/04/22 05:55:39;;;;;;;7.73;3.80;;;7.80;99.90;;;;;;5012937;28;20219;-60
2022/04/22 05:58:06;;;;;;;6.33;3.37;;;7.90;99.90;;;;;;5033046;28;20208;-60
2022/04/22 06:00:33;;;;;;;5.93;3.60;;;7.90;99.90;;;;;;5038046;28;20390;-60
2022/04/22 06:03:01;;;;;;;8.93;3.80;;;7.90;99.90;;;;;;5045269;28;20206;-60
2022/04/22 06:05:28;;;;;;;9.40;3.80;;;8.00;99.90;;;;;;5045619;28;20261;-60
2022/04/22 06:10:41;;;;;;;6.93;3.20;;;8.20;99.90;;;;;;5008583;28;21334;-61
2022/04/22 06:13:08;;;;;;;5.57;3.23;;;8.20;99.90;;;;;;5038458;28;20311;-60
2022/04/22 06:15:35;;;;;;;6.50;3.70;;;8.30;99.90;;;;;;5033302;28;20257;-61
2022/04/22 06:18:03;;;;;;;5.13;3.40;;;8.30;99.90;;;;;;5050507;28;20286;-61
2022/04/22 06:20:30;;;;;;;7.23;3.60;;;8.30;99.90;;;;;;5046150;28;21099;-60
2022/04/22 06:22:59;;;;;;;4.57;3.60;;;8.30;99.90;;;;;;5052005;28;20275;-61
2022/04/22 06:25:27;;;;;;;5.30;3.73;;;8.40;99.90;;;;;;5012791;28;20688;-61
2022/04/22 06:27:55;;;;;;;5.87;3.40;;;8.40;99.90;;;;;;5034254;28;20318;-61
2022/04/22 06:30:23;;;;;;;7.00;3.83;;;8.50;99.90;;;;;;5024669;28;20230;-62
2022/04/22 06:32:52;;;;;;;11.27;3.90;;;8.50;99.90;;;;;;5032136;28;20782;-61
2022/04/22 06:35:21;;;;;;;6.97;4.10;;;8.50;99.90;;;;;;5031238;28;20209;-62
2022/04/22 06:37:52;;;;;;;6.67;3.60;;;8.50;99.90;;;;;;5044353;28;20850;-61
2022/04/22 06:45:53;;;;;;;6.70;3.27;;;8.60;99.90;;;;;;5030695;28;20203;-60
2022/04/22 06:48:25;;;;;;;5.67;3.53;;;8.70;99.90;;;;;;5032958;28;20668;-61
2022/04/22 06:50:53;;;;;;;6.60;3.60;;;8.80;99.90;;;;;;5042199;28;20231;-64
2022/04/22 06:53:21;;;;;;;11.83;4.27;;;8.80;99.90;;;;;;5050809;28;20319;-61
2022/04/22 06:55:52;;;;;;;6.57;3.90;;;8.90;99.90;;;;;;5024339;28;20676;-60
2022/04/22 06:58:20;;;;;;;6.20;3.10;;;8.90;99.90;;;;;;5029513;28;20219;-60
2022/04/22 07:00:48;;;;;;;6.70;3.53;;;8.90;99.90;;;;;;5017537;28;20212;-61
2022/04/22 07:03:17;;;;;;;9.67;3.30;;;9.00;99.90;;;;;;5047328;28;20258;-60
2022/04/22 07:05:46;;;;;;;5.47;3.07;;;9.00;99.90;;;;;;5039070;28;20281;-61
2022/04/22 07:08:14;;;;;;;8.90;3.90;;;9.10;99.90;;;;;;5046962;28;20495;-61
2022/04/22 07:10:42;;;;;;;5.73;2.87;;;9.20;99.90;;;;;;5050596;28;20200;-61
2022/04/22 07:13:12;;;;;;;6.87;3.30;;;9.30;99.90;;;;;;5027930;28;20229;-61
2022/04/22 07:15:40;;;;;;;5.30;3.63;;;9.40;99.90;;;;;;5034660;28;20193;-61
2022/04/22 07:18:08;;;;;;;7.63;3.20;;;9.50;99.90;;;;;;5034860;28;21172;-61
2022/04/22 07:20:36;;;;;;;6.93;3.53;;;9.50;99.90;;;;;;5034111;28;20845;-61
2022/04/22 07:23:03;;;;;;;6.40;3.77;;;9.60;99.90;;;;;;5047319;28;20197;-60
2022/04/22 07:25:31;;;;;;;7.53;3.50;;;9.70;99.90;;;;;;5045037;28;20232;-62
2022/04/22 07:27:59;;;;;;;4.07;3.27;;;9.70;99.90;;;;;;5049031;28;20236;-61
2022/04/22 07:30:28;;;;;;;7.70;3.73;;;9.70;99.90;;;;;;5018040;28;20225;-61
2022/04/22 07:32:55;;;;;;;4.63;3.57;;;9.70;99.90;;;;;;5031985;28;20235;-61
2022/04/22 07:35:23;;;;;;;7.77;3.27;;;9.80;99.90;;;;;;5035095;28;20213;-61
2022/04/22 07:37:52;;;;;;;7.33;3.10;;;9.90;99.90;;;;;;5054535;28;20235;-61
2022/04/22 07:40:21;;;;;;;3.37;2.70;;;10.00;99.90;;;;;;5049090;28;20244;-61
2022/04/22 07:48:19;;;;;;;8.97;3.83;;;10.20;99.90;;;;;;5033975;28;20290;-61
2022/04/22 07:50:47;;;;;;;5.27;3.10;;;10.20;99.90;;;;;;5027618;28;20232;-62
2022/04/22 07:53:14;;;;;;;4.70;2.80;;;10.40;99.90;;;;;;5048309;28;20967;-61
2022/04/22 07:55:42;;;;;;;5.93;3.03;;;10.40;99.90;;;;;;5049452;28;20278;-62
2022/04/22 07:58:10;;;;;;;5.50;2.93;;;10.50;99.90;;;;;;5049131;28;20201;-62
2022/04/22 08:00:40;;;;;;;3.63;2.88;;;10.50;99.90;;;;;;5029785;28;20209;-61
2022/04/22 08:03:07;;;;;;;8.10;3.33;;;10.60;99.90;;;;;;5037316;28;20232;-61
2022/04/22 08:05:35;;;;;;;4.80;3.00;;;10.60;99.90;;;;;;5020710;28;20868;-61
2022/04/22 08:08:02;;;;;;;6.63;3.50;;;10.60;99.90;;;;;;5048017;28;20283;-61
2022/04/22 08:10:29;;;;;;;7.07;2.83;;;10.70;99.90;;;;;;5043595;28;20199;-62
2022/04/22 08:12:57;;;;;;;6.47;3.05;;;10.80;99.90;;;;;;5052373;28;20846;-62
2022/04/22 08:15:24;;;;;;;8.20;2.93;;;10.80;99.90;;;;;;5037426;28;20197;-61
2022/04/22 08:17:53;;;;;;;5.07;2.90;;;10.90;99.90;;;;;;5031719;28;20251;-61
2022/04/22 08:20:20;;;;;;;6.28;3.35;;;10.90;99.90;;;;;;5025863;28;20930;-62
2022/04/22 08:22:47;;;;;;;4.55;3.17;;;10.90;99.90;;;;;;5035629;28;20784;-62
2022/04/22 08:25:14;;;;;;;5.03;3.40;;;11.10;99.90;;;;;;5047629;28;20292;-61
2022/04/22 08:27:42;;;;;;;7.95;3.10;;;11.20;99.90;;;;;;5040483;28;20228;-61
2022/04/22 08:30:10;;;;;;;6.47;3.40;;;11.20;99.90;;;;;;5032555;28;20677;-61
2022/04/22 08:32:37;;;;;;;5.40;3.27;;;11.20;99.90;;;;;;5027101;28;20255;-61
2022/04/22 08:35:08;;;;;;;3.95;2.75;;;11.30;99.90;;;;;;5017074;28;20262;-62
2022/04/22 08:37:36;;;;;;;5.57;3.17;;;11.40;99.90;;;;;;5048653;28;20212;-62
2022/04/22 08:40:23;;;;;;;9.93;3.30;;;11.50;99.90;;;;;;5030418;28;20207;-61
2022/04/22 08:42:50;;;;;;;3.87;3.33;;;11.60;99.90;;;;;;5032864;28;20204;-61
2022/04/22 08:45:17;;;;;;;5.35;3.33;;;11.80;99.90;;;;;;5040237;28;20734;-61
2022/04/22 08:50:32;;;;;;;5.15;3.20;;;11.90;99.90;;;;;;5025987;28;20211;-62
2022/04/22 08:53:04;;;;;;;5.55;3.38;;;12.00;99.90;;;;;;5026909;28;20263;-61
2022/04/22 08:55:32;;;;;;;4.55;3.00;;;12.00;99.90;;;;;;5044559;28;20332;-62
2022/04/22 08:58:00;;;;;;;5.53;3.42;;;12.10;99.90;;;;;;5048247;28;20209;-61
2022/04/22 09:00:29;;;;;;;4.43;3.30;;;12.20;99.90;;;;;;5048087;28;20197;-61
2022/04/22 09:02:56;;;;;;;8.82;3.55;;;12.20;99.90;;;;;;5025059;28;20257;-61
2022/04/22 09:05:23;;;;;;;4.93;3.25;;;12.30;99.90;;;;;;5037141;28;20778;-61
2022/04/22 09:07:53;;;;;;;6.25;3.30;;;12.40;99.90;;;;;;5034013;28;20213;-59
2022/04/22 09:10:20;;;;;;;6.22;3.65;;;12.30;99.90;;;;;;5045484;28;20698;-62
2022/04/22 09:12:53;;;;;;;9.45;3.60;;;12.40;99.90;;;;;;5051394;28;20239;-62
2022/04/22 09:15:23;;;;;;;8.82;3.60;;;12.50;99.90;;;;;;5044734;28;20217;-61
2022/04/22 09:17:50;;;;;;;4.10;3.00;;;12.60;99.90;;;;;;5036157;28;20973;-61
2022/04/22 09:20:17;;;;;;;5.60;2.90;;;12.70;99.90;;;;;;5031489;28;20220;-62
2022/04/22 09:22:45;;;;;;;5.10;3.67;;;12.70;99.90;;;;;;5039328;28;20208;-61
2022/04/22 09:25:23;;;;;;;7.18;3.28;;;12.80;99.90;;;;;;5035528;28;20219;-61
2022/04/22 09:27:50;;;;;;;4.50;2.85;;;12.90;99.90;;;;;;5037804;28;20200;-61
2022/04/22 09:30:17;;;;;;;8.20;3.28;;;13.00;99.90;;;;;;5044768;28;20223;-61
2022/04/22 09:32:45;;;;;;;3.60;2.83;;;13.10;99.90;;;;;;5026959;28;20243;-61
2022/04/22 09:35:15;;;;;;;4.53;3.25;;;13.10;99.90;;;;;;5014967;28;20844;-60
2022/04/22 09:43:33;;;;;;;5.50;3.38;;;13.30;99.90;;;;;;5049150;28;20219;-62
2022/04/22 09:46:01;;;;;;;6.07;3.05;;;13.30;99.90;;;;;;5045254;28;20261;-62
2022/04/22 09:48:42;;;;;;;6.22;3.25;;;13.40;99.90;;;;;;5046878;28;20269;-62
2022/04/22 09:51:22;;;;;;;3.97;2.90;;;13.40;99.90;;;;;;5021972;28;20224;-61
2022/04/22 09:54:00;;;;;;;4.85;3.15;;;13.50;99.90;;;;;;5029432;28;20278;-62
2022/04/22 09:56:31;;;;;;;5.35;3.17;;;13.50;99.90;;;;;;5052911;28;20195;-62
2022/04/22 09:58:58;;;;;;;13.18;3.38;;;13.60;99.90;;;;;;5048165;28;20211;-62
2022/04/22 10:01:26;;;;;;;3.75;3.00;;;13.50;99.90;;;;;;5050386;28;20286;-62
2022/04/22 10:03:53;;;;;;;5.50;3.30;;;13.60;99.90;;;;;;5048092;28;20197;-62
2022/04/22 10:06:21;;;;;;;4.45;2.85;;;13.80;99.90;;;;;;5021550;28;20655;-62
2022/04/22 10:08:51;;;;;;;6.97;2.97;;;13.90;99.90;;;;;;5029534;28;20205;-61
2022/04/22 10:11:19;;;;;;;7.78;3.17;;;13.90;99.90;;;;;;5041774;28;20228;-62
2022/04/22 10:13:49;;;;;;;4.93;3.35;;;13.90;99.90;;;;;;5052698;28;20240;-61
2022/04/22 10:16:16;;;;;;;6.85;3.65;;;13.90;99.90;;;;;;5056277;28;20284;-61
2022/04/22 10:18:44;;;;;;;6.07;3.50;;;14.00;99.90;;;;;;5049812;28;20211;-62
2022/04/22 10:21:11;;;;;;;5.10;3.08;;;14.10;99.90;;;;;;5025675;28;20783;-62
2022/04/22 10:23:38;;;;;;;5.47;3.28;;;14.10;99.90;;;;;;5045881;28;20232;-61
2022/04/22 10:26:06;;;;;;;6.25;3.10;;;14.10;99.90;;;;;;5041574;28;20215;-61
2022/04/22 10:28:34;;;;;;;7.93;3.40;;;14.20;99.90;;;;;;5054193;28;20826;-61
2022/04/22 10:31:05;;;;;;;5.00;3.13;;;14.30;99.90;;;;;;5055846;28;20284;-62
2022/04/22 10:33:40;;;;;;;6.28;3.55;;;14.40;99.90;;;;;;5056535;28;20431;-61
2022/04/22 10:36:07;;;;;;;9.32;3.60;;;14.50;99.90;;;;;;5035180;28;20940;-62
2022/04/22 10:38:37;;;;;;;4.80;2.65;;;14.40;99.90;;;;;;5040724;28;20201;-61
2022/04/22 10:41:13;;;;;;;9.45;4.20;;;14.60;99.90;;;;;;5054604;28;20197;-60
2022/04/22 10:43:40;;;;;;;5.80;3.53;;;14.70;99.90;;;;;;5079564;28;20196;-62
2022/04/22 10:49:13;;;;;;;4.88;3.33;;;14.70;99.90;;;;;;5046882;28;20208;-62
2022/04/22 10:52:02;;;;;;;6.47;3.35;;;14.90;99.90;;;;;;5027283;28;20227;-62
2022/04/22 10:55:07;;;;;;;6.60;3.45;;;14.90;99.90;;;;;;5028273;28;20262;-62
2022/04/22 10:57:34;;;;;;;7.40;3.65;;;14.80;99.90;;;;;;5035144;28;20262;-63
2022/04/22 11:00:27;;;;;;;4.13;2.70;;;14.80;99.90;;;;;;5050469;28;20703;-63
2022/04/22 11:03:18;;;;;;;6.60;3.72;;;14.90;99.90;;;;;;5044305;28;20201;-62
2022/04/22 11:05:49;;;;;;;8.50;3.47;;;15.00;99.90;;;;;;5043520;28;20255;-62
2022/04/22 11:08:26;;;;;;;6.80;3.83;;;15.00;99.90;;;;;;5016872;28;20201;-63
2022/04/22 11:11:15;;;;;;;7.50;3.85;;;15.10;99.90;;;;;;5034914;28;20232;-61
2022/04/22 11:13:52;;;;;;;5.13;3.33;;;15.10;99.90;;;;;;5029232;28;20236;-62
2022/04/22 11:16:37;;;;;;;4.88;3.15;;;15.10;99.90;;;;;;5044446;28;20208;-62
2022/04/22 11:19:23;;;;;;;7.05;3.30;;;15.30;99.90;;;;;;5038084;28;20727;-62
2022/04/22 11:21:53;;;;;;;12.18;3.63;;;15.40;99.90;;;;;;5027100;28;20702;-65
2022/04/22 11:24:21;;;;;;;9.57;3.45;;;15.40;99.90;;;;;;5030953;28;20204;-62
2022/04/22 11:26:48;;;;;;;4.68;3.42;;;15.50;99.90;;;;;;5031940;28;20316;-62
2022/04/22 11:29:17;;;;;;;15.85;4.30;;;15.50;99.90;;;;;;5032653;28;20756;-62
2022/04/22 11:32:00;;;;;;;7.15;3.38;;;15.50;99.90;;;;;;5043052;28;20197;-62
2022/04/22 11:34:54;;;;;;;10.27;3.58;;;15.50;99.90;;;;;;5048903;28;20225;-62
2022/04/22 11:37:23;;;;;;;7.05;3.67;;;15.60;99.90;;;;;;5044270;28;20571;-62
2022/04/22 11:39:50;;;;;;;5.03;3.38;;;15.60;99.90;;;;;;5014818;28;20212;-62
2022/04/22 11:42:18;;;;;;;10.95;3.70;;;15.60;99.90;;;;;;5038827;28;20939;-62
2022/04/22 11:44:45;;;;;;;9.65;4.30;;;15.60;99.90;;;;;;5034903;28;20218;-64
2022/04/22 11:47:13;;;;;;;5.28;3.47;;;15.60;99.90;;;;;;5038888;28;20209;-62
2022/04/22 11:49:41;;;;;;;5.55;3.47;;;15.80;99.90;;;;;;5044258;28;20594;-62
2022/04/22 11:52:09;;;;;;;8.52;4.18;;;15.80;99.90;;;;;;5045058;28;20196;-63
2022/04/22 11:54:36;;;;;;;7.00;3.90;;;15.80;99.90;;;;;;5028457;28;20239;-63
2022/04/22 11:57:06;;;;;;;8.75;3.58;;;15.80;99.90;;;;;;5017961;28;20197;-63
2022/04/22 11:59:33;;;;;;;7.38;3.72;;;15.90;99.90;;;;;;5042430;28;20204;-62
2022/04/22 12:08:05;;;;;;;4.53;3.33;;;15.90;99.90;;;;;;5016156;28;20208;-62
2022/04/22 12:10:34;;;;;;;4.93;2.97;;;15.90;99.90;;;;;;5015680;28;20244;-62
2022/04/22 12:13:03;;;;;;;5.90;3.13;;;15.90;99.90;;;;;;5036332;28;20236;-62
2022/04/22 12:15:30;;;;;;;5.88;3.67;;;15.90;99.90;;;;;;5030708;28;20255;-61
2022/04/22 12:17:57;;;;;;;3.67;3.05;;;15.90;99.90;;;;;;5038601;28;20227;-62
2022/04/22 12:20:26;;;;;;;6.38;3.42;;;16.00;99.90;;;;;;5033655;28;21113;-62
2022/04/22 12:22:56;;;;;;;9.43;3.10;;;16.20;99.90;;;;;;5031283;28;20215;-62
2022/04/22 12:25:23;;;;;;;7.95;3.30;;;16.30;99.90;;;;;;5025675;28;20211;-62
2022/04/22 12:28:13;;;;;;;4.45;3.40;;;16.30;99.90;;;;;;5037216;28;20208;-62
2022/04/22 12:30:41;;;;;;;3.53;2.78;;;16.30;99.90;;;;;;5034229;28;20213;-62
2022/04/22 12:33:17;;;;;;;7.10;2.78;;;16.40;99.90;;;;;;5013583;28;20247;-62
2022/04/22 12:35:45;;;;;;;7.60;3.50;;;16.30;99.90;;;;;;5024473;28;20216;-61
2022/04/22 12:38:14;;;;;;;4.75;3.40;;;16.20;99.90;;;;;;5012289;28;20229;-61
2022/04/22 12:40:50;;;;;;;8.52;3.78;;;16.20;99.90;;;;;;5024356;28;20456;-61
2022/04/22 12:43:27;;;;;;;8.10;3.88;;;16.20;99.90;;;;;;5025966;28;20224;-61
2022/04/22 12:54:17;;;;;;;6.72;3.63;;;16.20;99.90;;;;;;5032761;28;20224;-62
2022/04/22 12:56:53;;;;;;;7.68;3.80;;;16.30;99.90;;;;;;5011394;28;20668;-61
2022/04/22 12:59:21;;;;;;;4.90;3.70;;;16.20;99.90;;;;;;5041459;28;20224;-61
2022/04/22 13:01:49;;;;;;;15.68;4.57;;;16.20;99.90;;;;;;5036539;28;20201;-61
2022/04/22 13:04:23;;;;;;;9.95;4.32;;;16.10;99.90;;;;;;5047558;28;20215;-61
2022/04/22 13:06:52;;;;;;;7.57;3.70;;;16.00;99.90;;;;;;5049570;28;20208;-61
2022/04/22 13:09:23;;;;;;;9.48;4.07;;;15.90;99.90;;;;;;5034638;28;20223;-61
2022/04/22 13:11:51;;;;;;;8.40;3.97;;;15.70;99.90;;;;;;5036730;28;20231;-61
2022/04/22 13:14:18;;;;;;;5.95;3.75;;;15.60;99.90;;;;;;5052238;28;20234;-61
2022/04/22 13:16:45;;;;;;;8.13;3.50;;;15.60;99.90;;;;;;5041795;28;20228;-61
2022/04/22 13:19:12;;;;;;;8.38;3.10;;;15.90;99.90;;;;;;5056919;28;20472;-62
2022/04/22 13:21:40;;;;;;;5.70;3.95;;;16.00;99.90;;;;;;5074767;28;20208;-61
2022/04/22 13:24:08;;;;;;;5.03;3.20;;;16.00;99.90;;;;;;5048531;28;20244;-60
2022/04/22 13:26:37;;;;;;;7.65;3.40;;;16.20;99.90;;;;;;5041982;28;20201;-61
2022/04/22 13:29:05;;;;;;;8.63;3.63;;;16.30;99.90;;;;;;5028805;28;20585;-61
2022/04/22 13:31:33;;;;;;;6.22;2.83;;;16.30;99.90;;;;;;5017016;28;20236;-62
2022/04/22 13:34:01;;;;;;;8.77;2.67;;;16.30;99.90;;;;;;5043409;28;20723;-62
2022/04/22 13:36:30;;;;;;;3.63;2.85;;;16.20;99.90;;;;;;5037169;28;20220;-62
2022/04/22 13:38:57;;;;;;;7.15;2.88;;;16.10;99.90;;;;;;5046692;28;20284;-62
2022/04/22 13:41:24;;;;;;;5.65;3.08;;;16.00;99.90;;;;;;5030988;28;20211;-62
2022/04/22 13:43:52;;;;;;;6.07;2.97;;;15.80;99.90;;;;;;5027265;28;20231;-62
2022/04/22 13:54:35;;;;;;;4.43;2.40;;;16.10;99.90;;;;;;5040269;28;20246;-62
2022/04/22 13:57:03;;;;;;;3.65;2.33;;;16.30;99.90;;;;;;5029948;28;20230;-61
2022/04/22 13:59:33;;;;;;;3.90;2.50;;;16.20;99.90;;;;;;5025969;28;20819;-61
2022/04/22 14:02:01;;;;;;;5.35;2.10;;;16.20;99.90;;;;;;5030995;28;20222;-61
2022/04/22 14:04:29;;;;;;;9.48;2.40;;;16.20;99.90;;;;;;5036127;28;21565;-62
2022/04/22 14:06:56;;;;;;;2.55;2.03;;;16.30;99.90;;;;;;5052837;28;20193;-62
2022/04/22 14:09:23;;;;;;;3.45;2.45;;;16.40;99.90;;;;;;5046586;28;20201;-62
2022/04/22 14:11:50;;;;;;;7.43;2.53;;;16.30;99.90;;;;;;5037618;28;20991;-62
2022/04/22 14:14:19;;;;;;;3.67;2.47;;;16.30;99.90;;;;;;5027594;28;20231;-63
2022/04/22 14:16:49;;;;;;;3.35;2.20;;;16.30;99.90;;;;;;5048124;28;20258;-66